Upper Island Cove, Canada
Current Conditions -  °F | °C
As of 3:00 AM on Wednesday 26 Nov 2014 (Local Time) from CYYT Reporting Station
Few Clouds Few Clouds  
Wind Chill: 38°   Ceiling: Unl
Heat Index: 46°   Visibility: 15mi
Dew Point: 45°   Wind: 25mph
Humidity: 93%   Direction: 270°W
Pressure: 29.69"   Gusts: 31mph
Location:  47.65°N, 53.22°W
Report Text: CYYT 260600Z 27022G27KT 15SM FEW220 08/07 A2969 RMK CI1 SLP057
Loading
Personal Weather Stations






























Interactive Weather Map New forecast layout! Learn more

10-Day Weather Forecast

Advertisements
Track Severe Weather on mobile